Aviation Digital Data Service (ADDS)

Output produced by METARs form (1147 UTC 07 October 2022)
found at http://www.aviationweather.gov/metar/data/
 
VTSS 071130Z 00000KT 9999 -RA SCT020 SCT028 BKN100 24/23 Q1009 NOSIG
VTSS 071100Z 00000KT 9999 SCT020 SCT028 BKN100 25/24 Q1009 NOSIG
VTSS 071030Z 04004KT 270V080 9999 SCT020 SCT028 BKN100 25/24 Q1008 NOSIG
VTSS 071000Z VRB06KT 9999 SCT004 FEW018CB SCT020 BKN025 24/23 Q1008 NOSIG
VTSS 070930Z 30006KT 270V070 9999 -RA SCT004 FEW018CB SCT020 BKN025 24/24 Q1008 NOSIG
VTSS 070900Z 36005KT 270V080 9999 -RA SCT004 FEW018CB SCT020 BKN025 24/24 Q1008 RETSRA NOSIG
VTSS 070830Z 31008KT 270V080 5000 TSRA FEW004 FEW018CB SCT020 BKN025 24/24 Q1008 RERA NOSIG
VTSS 070800Z 05010KT 270V080 2000 +TSRA SCT005 FEW016CB SCT018 BKN025 24/24 Q1008 BECMG TL0815 8000 NSW
VTSS 070730Z VRB07KT 4000 TSRA SCT006 FEW016CB SCT018 BKN025 25/24 Q1008 TEMPO TL0800 2000 +TSRA
VTSS 070700Z 34009KT 280V080 9999 -RA FEW018CB SCT020 BKN090 26/24 Q1008 NOSIG
VTSS 070630Z 23007KT 160V260 9999 VCSH FEW018CB SCT020 BKN090 31/23 Q1008 NOSIG
VTSS 070600Z 23008KT 100V270 9999 VCSH FEW018CB SCT020 BKN100 30/23 Q1008 NOSIG
VTSS 070530Z 23006KT 090V260 9999 VCSH FEW018CB SCT020 BKN100 32/24 Q1008 NOSIG
VTSS 070500Z 24006KT 100V260 9999 SCT020 BKN100 31/24 Q1009 NOSIG
VTSS 070430Z VRB05KT 9999 SCT020 SCT100 32/25 Q1009 NOSIG
VTSS 070400Z 21004KT 090V260 9999 SCT020 SCT100 31/25 Q1010 NOSIG
VTSS 070330Z 13005KT 090V260 9999 SCT020 SCT100 30/25 Q1010 NOSIG
VTSS 070300Z VRB03KT 9999 SCT020 BKN100 30/25 Q1011 NOSIG
VTSS 070230Z VRB02KT 9999 FEW020 BKN100 29/25 Q1011 NOSIG
VTSS 070200Z VRB02KT 9999 SCT020 BKN100 28/25 Q1011 NOSIG
VTSS 070130Z VRB02KT 9999 FEW004 SCT020 BKN100 27/25 Q1011 NOSIG
VTSS 070100Z 00000KT 9000 FEW004 SCT020 BKN100 26/24 Q1010 NOSIG
VTSS 070030Z 00000KT 7000 SCT003 BKN100 25/24 Q1010 NOSIG
VTSS 070000Z 00000KT 6000 FEW002 BKN100 24/24 Q1009 NOSIG
VTSS 062330Z 00000KT 8000 SCT002 BKN100 24/24 Q1008 NOSIG
VTSS 062300Z 00000KT 2000 0900W BR BKN002 BKN100 24/24 Q1008 NOSIG
VTSS 062230Z 00000KT 7000 SCT002 BKN100 24/24 Q1008 NOSIG
VTSS 062200Z 00000KT 9000 FEW002 BKN100 24/24 Q1008 NOSIG
VTSS 062130Z 00000KT 9999 FEW002 BKN100 24/23 Q1008 NOSIG
VTSS 062100Z 00000KT 9999 FEW002 BKN100 24/23 Q1008 NOSIG
VTSS 062030Z 00000KT 9999 FEW002 BKN100 24/23 Q1008 NOSIG
VTSS 062000Z 00000KT 9999 FEW002 BKN100 24/23 Q1008 NOSIG
VTSS 061930Z 00000KT 9000 FEW002 BKN100 24/23 Q1009 NOSIG
VTSS 061900Z 00000KT 9000 FEW002 BKN100 24/23 Q1009 NOSIG
VTSS 061830Z 00000KT 7000 FEW002 BKN100 24/23 Q1009 NOSIG
VTSS 061800Z 00000KT 9999 FEW020 BKN100 24/23 Q1009 NOSIG
VTSS 061730Z 00000KT 9999 FEW020 BKN100 24/24 Q1010 NOSIG
VTSS 061700Z 13002KT 9999 FEW020 BKN100 24/24 Q1010 NOSIG
VTSS 061630Z 00000KT 9999 FEW020 BKN100 24/24 Q1010 NOSIG
VTSS 061600Z 00000KT 9999 FEW020 BKN100 24/24 Q1011 NOSIG
VTSS 061530Z 00000KT 9999 FEW020 BKN100 24/24 Q1011 NOSIG
VTSS 061500Z 00000KT 9999 FEW020 BKN100 24/24 Q1011 NOSIG
VTSS 061430Z 27003KT 9999 FEW020 BKN100 24/24 Q1011 NOSIG
VTSS 061400Z 24004KT 9999 FEW020 SCT028 BKN100 24/23 Q1010 NOSIG
VTSS 061330Z 00000KT 9999 -RA SCT020 SCT028 BKN100 24/23 Q1010 NOSIG
VTSS 061300Z 00000KT 9999 -RA SCT020 SCT028 BKN100 25/24 Q1010 NOSIG
VTSS 061230Z 00000KT 9999 -RA SCT020 SCT028 BKN100 25/25 Q1009 NOSIG
VTSS 061200Z 00000KT 9999 -RA SCT020 SCT028 BKN100 26/26 Q1008 NOSIG
TAF VTSS 071100Z 0712/0812 00000KT 9999 SCT020 BKN100 
     TEMPO 0712/0718 4000 RA 
     BECMG 0721/0723 2000 BR BKN005 
     BECMG 0801/0803 06006KT 9999 NSW FEW020 
     TEMPO 0806/0812 VRB15G25KT 3000 TSRA FEW016CB SCT018 BKN100